Camden, Michigan
Current Conditions -  °F | °C
As of 7:34 PM on Sunday 23 Nov 2014 (Local Time) from KJYM Reporting Station
Light Rain Light Rain  
Wind Chill: 51°   Ceiling: 4800
Heat Index: 51°   Visibility: 7mi
Dew Point: 50°   Wind: 14mph
Humidity: 97%   Direction: 120°ESE
Pressure: 29.46"   Gusts: 17mph
Location:  41.75°N, 84.76°W
Report Text: KJYM 240034Z AUTO 12012G15KT 7SM -RA SCT040 BKN048 OVC070 11/10 A2946 RMK AO2 T01060101
Loading
Personal Weather Stations






























Interactive Weather Map New forecast layout! Learn more

10-Day Weather Forecast

Advertisements
Track Severe Weather on mobile